Terminal Aerodrome Forecast
Issued by NWS

Home | Current Version | Previous Version | Text Only | Print | Product List | Glossary On
Versions: 1 2 3 4 5 6 7 8 9 10 11 12 13 14 15 16 17 18 19 20 21
383
FTUS43 KGRB 220331 AAC
TAFAUW
TAF AMD
KAUW 220331Z 2204/2224 10007KT P6SM OVC008
     FM220800 04002KT 6SM BR OVC006
     FM221200 36002KT P6SM BKN007
     FM221600 34003KT P6SM BKN011
     FM221700 28003KT P6SM SCT045=

USA.gov is the U.S. government's official web portal to all federal, state and local government web resources and services.